sensor_id;sensor_type;location;lat;lon;timestamp;P1;durP1;ratioP1;P2;durP2;ratioP2
29730;SDS011;16639;51.488;0.152;2023-04-25T00:01:36;24.60;;;7.78;;
29730;SDS011;16639;51.488;0.152;2023-04-25T00:04:04;20.88;;;7.03;;
29730;SDS011;16639;51.488;0.152;2023-04-25T00:06:35;23.02;;;6.68;;
29730;SDS011;16639;51.488;0.152;2023-04-25T00:09:03;18.35;;;6.90;;
29730;SDS011;16639;51.488;0.152;2023-04-25T00:11:34;29.50;;;6.28;;
29730;SDS011;16639;51.488;0.152;2023-04-25T00:14:02;22.52;;;5.75;;
29730;SDS011;16639;51.488;0.152;2023-04-25T00:16:30;17.73;;;5.47;;
29730;SDS011;16639;51.488;0.152;2023-04-25T00:19:02;22.63;;;5.72;;
29730;SDS011;16639;51.488;0.152;2023-04-25T00:21:30;23.27;;;6.30;;
29730;SDS011;16639;51.488;0.152;2023-04-25T00:23:59;24.38;;;5.80;;
29730;SDS011;16639;51.488;0.152;2023-04-25T00:26:27;22.73;;;6.43;;
29730;SDS011;16639;51.488;0.152;2023-04-25T00:28:54;21.52;;;5.53;;
29730;SDS011;16639;51.488;0.152;2023-04-25T00:31:22;24.95;;;5.43;;
29730;SDS011;16639;51.488;0.152;2023-04-25T00:33:50;21.30;;;5.97;;
29730;SDS011;16639;51.488;0.152;2023-04-25T00:36:19;23.50;;;6.03;;
29730;SDS011;16639;51.488;0.152;2023-04-25T00:38:50;14.15;;;4.90;;
29730;SDS011;16639;51.488;0.152;2023-04-25T00:41:17;23.48;;;5.75;;
29730;SDS011;16639;51.488;0.152;2023-04-25T00:43:46;18.02;;;4.28;;
29730;SDS011;16639;51.488;0.152;2023-04-25T00:46:15;27.77;;;6.50;;
29730;SDS011;16639;51.488;0.152;2023-04-25T00:48:43;22.90;;;5.60;;
29730;SDS011;16639;51.488;0.152;2023-04-25T00:51:12;14.25;;;5.85;;
29730;SDS011;16639;51.488;0.152;2023-04-25T00:53:43;22.38;;;6.40;;
29730;SDS011;16639;51.488;0.152;2023-04-25T00:56:11;21.17;;;5.93;;
29730;SDS011;16639;51.488;0.152;2023-04-25T00:58:39;25.02;;;5.55;;
29730;SDS011;16639;51.488;0.152;2023-04-25T01:01:08;27.40;;;6.25;;
29730;SDS011;16639;51.488;0.152;2023-04-25T01:03:37;35.05;;;7.60;;
29730;SDS011;16639;51.488;0.152;2023-04-25T01:06:09;23.73;;;5.88;;
29730;SDS011;16639;51.488;0.152;2023-04-25T01:08:37;27.95;;;6.40;;
29730;SDS011;16639;51.488;0.152;2023-04-25T01:11:06;25.27;;;5.00;;
29730;SDS011;16639;51.488;0.152;2023-04-25T01:13:33;30.45;;;6.00;;
29730;SDS011;16639;51.488;0.152;2023-04-25T01:16:02;24.02;;;5.65;;
29730;SDS011;16639;51.488;0.152;2023-04-25T01:18:30;17.88;;;4.80;;
29730;SDS011;16639;51.488;0.152;2023-04-25T01:21:02;23.33;;;5.30;;
29730;SDS011;16639;51.488;0.152;2023-04-25T01:23:37;22.00;;;6.55;;
29730;SDS011;16639;51.488;0.152;2023-04-25T01:26:10;26.42;;;5.18;;
29730;SDS011;16639;51.488;0.152;2023-04-25T01:28:38;26.92;;;6.47;;
29730;SDS011;16639;51.488;0.152;2023-04-25T01:31:09;12.35;;;3.78;;
29730;SDS011;16639;51.488;0.152;2023-04-25T01:33:38;19.77;;;4.18;;
29730;SDS011;16639;51.488;0.152;2023-04-25T01:36:05;18.42;;;4.55;;
29730;SDS011;16639;51.488;0.152;2023-04-25T01:38:33;18.83;;;5.35;;
29730;SDS011;16639;51.488;0.152;2023-04-25T01:41:01;24.15;;;6.40;;
29730;SDS011;16639;51.488;0.152;2023-04-25T01:43:29;25.35;;;5.30;;
29730;SDS011;16639;51.488;0.152;2023-04-25T01:45:57;22.15;;;5.32;;
29730;SDS011;16639;51.488;0.152;2023-04-25T01:48:24;15.45;;;5.43;;
29730;SDS011;16639;51.488;0.152;2023-04-25T01:50:51;17.85;;;5.20;;
29730;SDS011;16639;51.488;0.152;2023-04-25T01:53:19;18.08;;;6.15;;
29730;SDS011;16639;51.488;0.152;2023-04-25T01:55:46;17.33;;;4.68;;
29730;SDS011;16639;51.488;0.152;2023-04-25T01:58:14;17.48;;;5.50;;
29730;SDS011;16639;51.488;0.152;2023-04-25T02:00:41;22.23;;;6.47;;
29730;SDS011;16639;51.488;0.152;2023-04-25T02:03:08;16.40;;;5.05;;
29730;SDS011;16639;51.488;0.152;2023-04-25T02:05:39;16.73;;;5.38;;
29730;SDS011;16639;51.488;0.152;2023-04-25T02:08:07;17.67;;;5.63;;
29730;SDS011;16639;51.488;0.152;2023-04-25T02:10:35;21.42;;;7.60;;
29730;SDS011;16639;51.488;0.152;2023-04-25T02:13:03;35.35;;;14.68;;
29730;SDS011;16639;51.488;0.152;2023-04-25T02:15:32;111.95;;;68.22;;
29730;SDS011;16639;51.488;0.152;2023-04-25T02:17:59;88.95;;;57.70;;
29730;SDS011;16639;51.488;0.152;2023-04-25T02:20:27;79.57;;;52.10;;
29730;SDS011;16639;51.488;0.152;2023-04-25T02:22:56;193.27;;;78.22;;
29730;SDS011;16639;51.488;0.152;2023-04-25T02:25:24;40.97;;;14.45;;
29730;SDS011;16639;51.488;0.152;2023-04-25T02:27:51;28.02;;;8.98;;
29730;SDS011;16639;51.488;0.152;2023-04-25T02:30:19;19.70;;;5.22;;
29730;SDS011;16639;51.488;0.152;2023-04-25T02:32:46;24.00;;;5.40;;
29730;SDS011;16639;51.488;0.152;2023-04-25T02:35:13;15.70;;;4.93;;
29730;SDS011;16639;51.488;0.152;2023-04-25T02:37:41;9.80;;;4.55;;
29730;SDS011;16639;51.488;0.152;2023-04-25T02:40:09;17.83;;;5.25;;
29730;SDS011;16639;51.488;0.152;2023-04-25T02:42:36;19.58;;;5.05;;
29730;SDS011;16639;51.488;0.152;2023-04-25T02:45:04;15.30;;;5.32;;
29730;SDS011;16639;51.488;0.152;2023-04-25T02:47:32;20.60;;;5.50;;
29730;SDS011;16639;51.488;0.152;2023-04-25T02:49:59;16.63;;;4.70;;
29730;SDS011;16639;51.488;0.152;2023-04-25T02:52:28;17.33;;;5.00;;
29730;SDS011;16639;51.488;0.152;2023-04-25T02:54:56;18.52;;;4.90;;
29730;SDS011;16639;51.488;0.152;2023-04-25T02:57:23;22.63;;;4.55;;
29730;SDS011;16639;51.488;0.152;2023-04-25T02:59:51;16.75;;;4.85;;
29730;SDS011;16639;51.488;0.152;2023-04-25T03:02:18;22.58;;;5.10;;
29730;SDS011;16639;51.488;0.152;2023-04-25T03:04:45;15.68;;;6.20;;
29730;SDS011;16639;51.488;0.152;2023-04-25T03:07:13;20.05;;;5.55;;
29730;SDS011;16639;51.488;0.152;2023-04-25T03:09:40;18.00;;;6.20;;
29730;SDS011;16639;51.488;0.152;2023-04-25T03:12:08;20.42;;;5.38;;
29730;SDS011;16639;51.488;0.152;2023-04-25T03:14:35;30.40;;;6.32;;
29730;SDS011;16639;51.488;0.152;2023-04-25T03:17:02;14.30;;;5.05;;
29730;SDS011;16639;51.488;0.152;2023-04-25T03:19:30;17.63;;;5.45;;
29730;SDS011;16639;51.488;0.152;2023-04-25T03:21:57;17.65;;;5.40;;
29730;SDS011;16639;51.488;0.152;2023-04-25T03:24:24;21.73;;;4.90;;
29730;SDS011;16639;51.488;0.152;2023-04-25T03:26:53;19.00;;;5.93;;
29730;SDS011;16639;51.488;0.152;2023-04-25T03:29:21;17.92;;;5.35;;
29730;SDS011;16639;51.488;0.152;2023-04-25T03:31:51;25.65;;;4.55;;
29730;SDS011;16639;51.488;0.152;2023-04-25T03:34:18;10.68;;;5.03;;
29730;SDS011;16639;51.488;0.152;2023-04-25T03:36:48;22.35;;;5.20;;
29730;SDS011;16639;51.488;0.152;2023-04-25T03:39:15;17.65;;;5.28;;
29730;SDS011;16639;51.488;0.152;2023-04-25T03:41:43;15.48;;;5.50;;
29730;SDS011;16639;51.488;0.152;2023-04-25T03:44:11;28.45;;;5.47;;
29730;SDS011;16639;51.488;0.152;2023-04-25T03:46:39;10.65;;;4.80;;
29730;SDS011;16639;51.488;0.152;2023-04-25T03:49:07;13.02;;;5.13;;
29730;SDS011;16639;51.488;0.152;2023-04-25T03:51:34;17.65;;;5.13;;
29730;SDS011;16639;51.488;0.152;2023-04-25T03:54:01;14.88;;;4.85;;
29730;SDS011;16639;51.488;0.152;2023-04-25T03:56:29;20.55;;;4.85;;
29730;SDS011;16639;51.488;0.152;2023-04-25T03:58:57;12.70;;;5.30;;
29730;SDS011;16639;51.488;0.152;2023-04-25T04:01:24;17.95;;;6.00;;
29730;SDS011;16639;51.488;0.152;2023-04-25T04:03:52;15.23;;;5.43;;
29730;SDS011;16639;51.488;0.152;2023-04-25T04:06:20;16.77;;;5.22;;
29730;SDS011;16639;51.488;0.152;2023-04-25T04:08:47;25.33;;;5.35;;
29730;SDS011;16639;51.488;0.152;2023-04-25T04:11:15;13.32;;;4.95;;
29730;SDS011;16639;51.488;0.152;2023-04-25T04:13:42;14.73;;;5.90;;
29730;SDS011;16639;51.488;0.152;2023-04-25T04:16:10;25.15;;;5.70;;
29730;SDS011;16639;51.488;0.152;2023-04-25T04:18:37;16.50;;;5.35;;
29730;SDS011;16639;51.488;0.152;2023-04-25T04:21:05;16.77;;;5.00;;
29730;SDS011;16639;51.488;0.152;2023-04-25T04:23:32;19.75;;;5.47;;
29730;SDS011;16639;51.488;0.152;2023-04-25T04:26:00;15.40;;;5.00;;
29730;SDS011;16639;51.488;0.152;2023-04-25T04:28:27;13.65;;;6.18;;
29730;SDS011;16639;51.488;0.152;2023-04-25T04:30:55;28.80;;;9.75;;
29730;SDS011;16639;51.488;0.152;2023-04-25T04:33:22;25.70;;;8.07;;
29730;SDS011;16639;51.488;0.152;2023-04-25T04:35:50;27.27;;;9.40;;
29730;SDS011;16639;51.488;0.152;2023-04-25T04:38:20;19.58;;;6.78;;
29730;SDS011;16639;51.488;0.152;2023-04-25T04:40:48;19.30;;;8.23;;
29730;SDS011;16639;51.488;0.152;2023-04-25T04:43:16;12.73;;;5.18;;
29730;SDS011;16639;51.488;0.152;2023-04-25T04:45:45;26.58;;;8.90;;
29730;SDS011;16639;51.488;0.152;2023-04-25T04:48:12;21.70;;;9.90;;
29730;SDS011;16639;51.488;0.152;2023-04-25T04:50:42;20.35;;;6.95;;
29730;SDS011;16639;51.488;0.152;2023-04-25T04:53:12;24.65;;;10.60;;
29730;SDS011;16639;51.488;0.152;2023-04-25T04:55:39;24.10;;;9.95;;
29730;SDS011;16639;51.488;0.152;2023-04-25T04:58:08;27.52;;;10.48;;
29730;SDS011;16639;51.488;0.152;2023-04-25T05:00:35;18.88;;;7.93;;
29730;SDS011;16639;51.488;0.152;2023-04-25T05:03:02;16.45;;;9.55;;
29730;SDS011;16639;51.488;0.152;2023-04-25T05:05:30;22.33;;;6.28;;
29730;SDS011;16639;51.488;0.152;2023-04-25T05:07:57;18.73;;;4.97;;
29730;SDS011;16639;51.488;0.152;2023-04-25T05:10:25;14.50;;;5.55;;
29730;SDS011;16639;51.488;0.152;2023-04-25T05:12:52;16.30;;;6.10;;
29730;SDS011;16639;51.488;0.152;2023-04-25T05:15:20;24.52;;;5.82;;
29730;SDS011;16639;51.488;0.152;2023-04-25T05:17:47;22.15;;;6.07;;
29730;SDS011;16639;51.488;0.152;2023-04-25T05:20:14;21.67;;;7.38;;
29730;SDS011;16639;51.488;0.152;2023-04-25T05:22:42;16.63;;;6.80;;
29730;SDS011;16639;51.488;0.152;2023-04-25T05:25:09;23.70;;;6.55;;
29730;SDS011;16639;51.488;0.152;2023-04-25T05:27:37;22.77;;;7.88;;
29730;SDS011;16639;51.488;0.152;2023-04-25T05:30:05;19.73;;;6.65;;
29730;SDS011;16639;51.488;0.152;2023-04-25T05:32:33;20.25;;;7.97;;
29730;SDS011;16639;51.488;0.152;2023-04-25T05:35:01;19.20;;;7.63;;
29730;SDS011;16639;51.488;0.152;2023-04-25T05:37:29;19.48;;;7.05;;
29730;SDS011;16639;51.488;0.152;2023-04-25T05:39:57;15.57;;;6.00;;
29730;SDS011;16639;51.488;0.152;2023-04-25T05:42:25;27.33;;;6.75;;
29730;SDS011;16639;51.488;0.152;2023-04-25T05:44:52;21.33;;;7.65;;
29730;SDS011;16639;51.488;0.152;2023-04-25T05:47:20;16.55;;;4.70;;
29730;SDS011;16639;51.488;0.152;2023-04-25T05:49:47;16.13;;;4.65;;
29730;SDS011;16639;51.488;0.152;2023-04-25T05:52:15;12.60;;;5.72;;
29730;SDS011;16639;51.488;0.152;2023-04-25T05:54:43;18.35;;;5.43;;
29730;SDS011;16639;51.488;0.152;2023-04-25T05:57:19;20.63;;;5.45;;
29730;SDS011;16639;51.488;0.152;2023-04-25T05:59:47;10.52;;;4.90;;
29730;SDS011;16639;51.488;0.152;2023-04-25T06:02:14;13.73;;;4.57;;
29730;SDS011;16639;51.488;0.152;2023-04-25T06:04:43;15.27;;;6.75;;
29730;SDS011;16639;51.488;0.152;2023-04-25T06:07:10;21.13;;;5.03;;
29730;SDS011;16639;51.488;0.152;2023-04-25T06:09:37;23.15;;;5.18;;
29730;SDS011;16639;51.488;0.152;2023-04-25T06:12:06;25.23;;;5.45;;
29730;SDS011;16639;51.488;0.152;2023-04-25T06:14:34;22.27;;;5.78;;
29730;SDS011;16639;51.488;0.152;2023-04-25T06:17:02;21.10;;;6.10;;
29730;SDS011;16639;51.488;0.152;2023-04-25T06:19:33;16.60;;;5.75;;
29730;SDS011;16639;51.488;0.152;2023-04-25T06:22:01;11.07;;;6.18;;
29730;SDS011;16639;51.488;0.152;2023-04-25T06:24:29;13.13;;;5.15;;
29730;SDS011;16639;51.488;0.152;2023-04-25T06:26:56;16.90;;;6.72;;
29730;SDS011;16639;51.488;0.152;2023-04-25T06:29:23;21.85;;;5.10;;
29730;SDS011;16639;51.488;0.152;2023-04-25T06:31:51;25.77;;;6.15;;
29730;SDS011;16639;51.488;0.152;2023-04-25T06:34:19;19.10;;;5.97;;
29730;SDS011;16639;51.488;0.152;2023-04-25T06:36:47;23.70;;;6.25;;
29730;SDS011;16639;51.488;0.152;2023-04-25T06:39:15;15.88;;;6.78;;
29730;SDS011;16639;51.488;0.152;2023-04-25T06:41:43;15.73;;;5.60;;
29730;SDS011;16639;51.488;0.152;2023-04-25T06:44:10;21.45;;;5.68;;
29730;SDS011;16639;51.488;0.152;2023-04-25T06:46:37;23.67;;;6.18;;
29730;SDS011;16639;51.488;0.152;2023-04-25T06:49:05;10.52;;;4.90;;
29730;SDS011;16639;51.488;0.152;2023-04-25T06:51:32;17.33;;;5.90;;
29730;SDS011;16639;51.488;0.152;2023-04-25T06:53:59;21.70;;;5.82;;
29730;SDS011;16639;51.488;0.152;2023-04-25T06:56:28;16.50;;;6.40;;
29730;SDS011;16639;51.488;0.152;2023-04-25T06:58:56;21.20;;;4.65;;
29730;SDS011;16639;51.488;0.152;2023-04-25T07:01:23;22.67;;;5.93;;
29730;SDS011;16639;51.488;0.152;2023-04-25T07:03:51;11.07;;;5.50;;
29730;SDS011;16639;51.488;0.152;2023-04-25T07:06:19;18.58;;;5.93;;
29730;SDS011;16639;51.488;0.152;2023-04-25T07:08:46;17.92;;;5.82;;
29730;SDS011;16639;51.488;0.152;2023-04-25T07:11:14;20.80;;;6.45;;
29730;SDS011;16639;51.488;0.152;2023-04-25T07:13:41;15.95;;;5.65;;
29730;SDS011;16639;51.488;0.152;2023-04-25T07:16:09;15.35;;;6.95;;
29730;SDS011;16639;51.488;0.152;2023-04-25T07:18:36;16.70;;;6.93;;
29730;SDS011;16639;51.488;0.152;2023-04-25T07:21:03;13.35;;;6.07;;
29730;SDS011;16639;51.488;0.152;2023-04-25T07:23:31;17.58;;;5.63;;
29730;SDS011;16639;51.488;0.152;2023-04-25T07:25:59;13.90;;;5.22;;
29730;SDS011;16639;51.488;0.152;2023-04-25T07:28:26;14.40;;;5.25;;
29730;SDS011;16639;51.488;0.152;2023-04-25T07:30:54;19.00;;;6.35;;
29730;SDS011;16639;51.488;0.152;2023-04-25T07:33:21;17.45;;;5.43;;
29730;SDS011;16639;51.488;0.152;2023-04-25T07:35:50;11.90;;;6.45;;
29730;SDS011;16639;51.488;0.152;2023-04-25T07:38:19;14.65;;;6.03;;
29730;SDS011;16639;51.488;0.152;2023-04-25T07:40:47;25.58;;;5.55;;
29730;SDS011;16639;51.488;0.152;2023-04-25T07:43:15;12.70;;;4.25;;
29730;SDS011;16639;51.488;0.152;2023-04-25T07:45:43;20.02;;;4.88;;
29730;SDS011;16639;51.488;0.152;2023-04-25T07:48:15;22.10;;;4.97;;
29730;SDS011;16639;51.488;0.152;2023-04-25T07:50:45;18.73;;;5.28;;
29730;SDS011;16639;51.488;0.152;2023-04-25T07:53:12;11.43;;;5.10;;
29730;SDS011;16639;51.488;0.152;2023-04-25T07:55:40;14.80;;;4.05;;
29730;SDS011;16639;51.488;0.152;2023-04-25T07:58:07;16.58;;;4.72;;
29730;SDS011;16639;51.488;0.152;2023-04-25T08:00:35;16.50;;;4.72;;
29730;SDS011;16639;51.488;0.152;2023-04-25T08:03:03;12.20;;;4.22;;
29730;SDS011;16639;51.488;0.152;2023-04-25T08:05:30;9.57;;;4.70;;
29730;SDS011;16639;51.488;0.152;2023-04-25T08:07:58;17.25;;;4.55;;
29730;SDS011;16639;51.488;0.152;2023-04-25T08:10:26;12.45;;;4.93;;
29730;SDS011;16639;51.488;0.152;2023-04-25T08:12:53;11.60;;;4.32;;
29730;SDS011;16639;51.488;0.152;2023-04-25T08:15:20;11.38;;;4.15;;
29730;SDS011;16639;51.488;0.152;2023-04-25T08:17:48;14.57;;;4.85;;
29730;SDS011;16639;51.488;0.152;2023-04-25T08:20:15;27.25;;;5.15;;
29730;SDS011;16639;51.488;0.152;2023-04-25T08:22:42;15.13;;;6.22;;
29730;SDS011;16639;51.488;0.152;2023-04-25T08:25:10;27.80;;;6.03;;
29730;SDS011;16639;51.488;0.152;2023-04-25T08:27:37;18.58;;;4.80;;
29730;SDS011;16639;51.488;0.152;2023-04-25T08:30:05;13.15;;;4.00;;
29730;SDS011;16639;51.488;0.152;2023-04-25T08:32:35;22.50;;;5.28;;
29730;SDS011;16639;51.488;0.152;2023-04-25T08:35:04;15.65;;;4.80;;
29730;SDS011;16639;51.488;0.152;2023-04-25T08:37:33;12.40;;;4.07;;
29730;SDS011;16639;51.488;0.152;2023-04-25T08:40:14;6.10;;;3.25;;
29730;SDS011;16639;51.488;0.152;2023-04-25T08:42:42;16.23;;;4.72;;
29730;SDS011;16639;51.488;0.152;2023-04-25T08:45:09;17.27;;;4.28;;
29730;SDS011;16639;51.488;0.152;2023-04-25T08:47:38;10.50;;;3.92;;
29730;SDS011;16639;51.488;0.152;2023-04-25T08:50:07;11.07;;;3.70;;
29730;SDS011;16639;51.488;0.152;2023-04-25T08:52:36;22.52;;;4.38;;
29730;SDS011;16639;51.488;0.152;2023-04-25T08:55:06;17.98;;;4.03;;
29730;SDS011;16639;51.488;0.152;2023-04-25T08:57:36;18.67;;;4.60;;
29730;SDS011;16639;51.488;0.152;2023-04-25T09:00:04;23.15;;;5.32;;
29730;SDS011;16639;51.488;0.152;2023-04-25T09:02:35;12.43;;;4.28;;
29730;SDS011;16639;51.488;0.152;2023-04-25T09:05:04;11.95;;;4.07;;
29730;SDS011;16639;51.488;0.152;2023-04-25T09:07:33;16.33;;;4.50;;
29730;SDS011;16639;51.488;0.152;2023-04-25T09:10:00;11.00;;;5.05;;
29730;SDS011;16639;51.488;0.152;2023-04-25T09:12:30;10.57;;;4.03;;
29730;SDS011;16639;51.488;0.152;2023-04-25T09:15:08;15.43;;;4.90;;
29730;SDS011;16639;51.488;0.152;2023-04-25T09:17:38;8.93;;;3.47;;
29730;SDS011;16639;51.488;0.152;2023-04-25T09:20:12;17.58;;;5.28;;
29730;SDS011;16639;51.488;0.152;2023-04-25T09:22:40;17.95;;;4.05;;
29730;SDS011;16639;51.488;0.152;2023-04-25T09:25:10;12.85;;;3.28;;
29730;SDS011;16639;51.488;0.152;2023-04-25T09:27:49;11.32;;;3.47;;
29730;SDS011;16639;51.488;0.152;2023-04-25T09:30:32;15.05;;;3.97;;
29730;SDS011;16639;51.488;0.152;2023-04-25T09:33:05;11.82;;;3.00;;
29730;SDS011;16639;51.488;0.152;2023-04-25T09:35:41;13.68;;;3.53;;
29730;SDS011;16639;51.488;0.152;2023-04-25T09:38:11;13.05;;;3.65;;
29730;SDS011;16639;51.488;0.152;2023-04-25T09:40:43;15.07;;;4.32;;
29730;SDS011;16639;51.488;0.152;2023-04-25T09:43:23;9.02;;;3.10;;
29730;SDS011;16639;51.488;0.152;2023-04-25T09:45:53;10.05;;;4.68;;
29730;SDS011;16639;51.488;0.152;2023-04-25T09:48:26;10.55;;;2.92;;
29730;SDS011;16639;51.488;0.152;2023-04-25T09:51:17;8.68;;;2.90;;
29730;SDS011;16639;51.488;0.152;2023-04-25T09:53:45;11.10;;;4.13;;
29730;SDS011;16639;51.488;0.152;2023-04-25T09:56:16;9.75;;;2.88;;
29730;SDS011;16639;51.488;0.152;2023-04-25T09:58:46;10.35;;;2.92;;
29730;SDS011;16639;51.488;0.152;2023-04-25T10:01:15;5.53;;;3.08;;
29730;SDS011;16639;51.488;0.152;2023-04-25T10:03:43;10.18;;;3.75;;
29730;SDS011;16639;51.488;0.152;2023-04-25T10:06:17;5.53;;;3.05;;
29730;SDS011;16639;51.488;0.152;2023-04-25T10:08:47;10.77;;;3.40;;
29730;SDS011;16639;51.488;0.152;2023-04-25T10:11:18;6.35;;;2.42;;
29730;SDS011;16639;51.488;0.152;2023-04-25T10:13:45;7.82;;;3.20;;
29730;SDS011;16639;51.488;0.152;2023-04-25T10:16:15;7.22;;;2.42;;
29730;SDS011;16639;51.488;0.152;2023-04-25T10:18:43;6.32;;;3.20;;
29730;SDS011;16639;51.488;0.152;2023-04-25T10:21:10;7.28;;;2.42;;
29730;SDS011;16639;51.488;0.152;2023-04-25T10:23:38;9.05;;;3.70;;
29730;SDS011;16639;51.488;0.152;2023-04-25T10:26:06;12.15;;;3.22;;
29730;SDS011;16639;51.488;0.152;2023-04-25T10:28:55;6.68;;;2.13;;
29730;SDS011;16639;51.488;0.152;2023-04-25T10:31:24;7.15;;;3.45;;
29730;SDS011;16639;51.488;0.152;2023-04-25T10:33:52;7.32;;;2.85;;
29730;SDS011;16639;51.488;0.152;2023-04-25T10:36:21;16.13;;;3.83;;
29730;SDS011;16639;51.488;0.152;2023-04-25T10:38:50;8.20;;;3.15;;
29730;SDS011;16639;51.488;0.152;2023-04-25T10:41:19;8.38;;;2.85;;
29730;SDS011;16639;51.488;0.152;2023-04-25T10:43:48;6.47;;;3.00;;
29730;SDS011;16639;51.488;0.152;2023-04-25T10:46:24;5.78;;;2.17;;
29730;SDS011;16639;51.488;0.152;2023-04-25T10:48:53;8.60;;;3.08;;
29730;SDS011;16639;51.488;0.152;2023-04-25T10:51:23;8.95;;;3.28;;
29730;SDS011;16639;51.488;0.152;2023-04-25T10:54:16;11.93;;;3.58;;
29730;SDS011;16639;51.488;0.152;2023-04-25T10:56:44;9.73;;;3.60;;
29730;SDS011;16639;51.488;0.152;2023-04-25T10:59:14;18.98;;;2.90;;
29730;SDS011;16639;51.488;0.152;2023-04-25T11:01:43;6.60;;;3.13;;
29730;SDS011;16639;51.488;0.152;2023-04-25T11:04:24;10.43;;;3.00;;
29730;SDS011;16639;51.488;0.152;2023-04-25T11:09:34;27.60;;;3.28;;
29730;SDS011;16639;51.488;0.152;2023-04-25T11:12:02;10.05;;;3.55;;
29730;SDS011;16639;51.488;0.152;2023-04-25T11:14:30;9.05;;;4.15;;
29730;SDS011;16639;51.488;0.152;2023-04-25T11:16:58;6.88;;;3.80;;
29730;SDS011;16639;51.488;0.152;2023-04-25T11:19:27;6.35;;;3.03;;
29730;SDS011;16639;51.488;0.152;2023-04-25T11:21:59;7.05;;;2.92;;
29730;SDS011;16639;51.488;0.152;2023-04-25T11:24:28;8.88;;;2.97;;
29730;SDS011;16639;51.488;0.152;2023-04-25T11:27:00;11.23;;;3.00;;
29730;SDS011;16639;51.488;0.152;2023-04-25T11:29:33;4.90;;;2.85;;
29730;SDS011;16639;51.488;0.152;2023-04-25T11:32:01;7.05;;;2.72;;
29730;SDS011;16639;51.488;0.152;2023-04-25T11:34:29;5.43;;;2.63;;
29730;SDS011;16639;51.488;0.152;2023-04-25T11:37:00;8.55;;;3.00;;
29730;SDS011;16639;51.488;0.152;2023-04-25T11:39:29;8.15;;;2.85;;
29730;SDS011;16639;51.488;0.152;2023-04-25T11:41:56;9.90;;;2.83;;
29730;SDS011;16639;51.488;0.152;2023-04-25T11:44:26;5.57;;;3.17;;
29730;SDS011;16639;51.488;0.152;2023-04-25T11:46:55;9.25;;;3.30;;
29730;SDS011;16639;51.488;0.152;2023-04-25T11:49:22;7.65;;;3.00;;
29730;SDS011;16639;51.488;0.152;2023-04-25T11:51:51;5.35;;;2.60;;
29730;SDS011;16639;51.488;0.152;2023-04-25T11:54:18;8.50;;;3.17;;
29730;SDS011;16639;51.488;0.152;2023-04-25T11:56:46;5.78;;;2.38;;
29730;SDS011;16639;51.488;0.152;2023-04-25T11:59:14;3.95;;;2.20;;
29730;SDS011;16639;51.488;0.152;2023-04-25T12:01:48;9.73;;;3.42;;
29730;SDS011;16639;51.488;0.152;2023-04-25T12:04:17;3.33;;;2.13;;
29730;SDS011;16639;51.488;0.152;2023-04-25T12:06:50;9.95;;;2.92;;
29730;SDS011;16639;51.488;0.152;2023-04-25T12:09:20;6.13;;;3.33;;
29730;SDS011;16639;51.488;0.152;2023-04-25T12:11:55;5.95;;;3.10;;
29730;SDS011;16639;51.488;0.152;2023-04-25T12:14:25;14.48;;;3.42;;
29730;SDS011;16639;51.488;0.152;2023-04-25T12:16:55;4.40;;;2.33;;
29730;SDS011;16639;51.488;0.152;2023-04-25T12:19:33;9.52;;;2.50;;
29730;SDS011;16639;51.488;0.152;2023-04-25T12:22:03;9.00;;;3.73;;
29730;SDS011;16639;51.488;0.152;2023-04-25T12:24:45;5.70;;;3.30;;
29730;SDS011;16639;51.488;0.152;2023-04-25T12:27:14;6.57;;;2.55;;
29730;SDS011;16639;51.488;0.152;2023-04-25T12:29:52;6.03;;;2.28;;
29730;SDS011;16639;51.488;0.152;2023-04-25T12:34:49;13.32;;;3.10;;
29730;SDS011;16639;51.488;0.152;2023-04-25T12:37:18;6.63;;;2.65;;
29730;SDS011;16639;51.488;0.152;2023-04-25T12:39:45;5.85;;;3.13;;
29730;SDS011;16639;51.488;0.152;2023-04-25T12:42:12;4.10;;;2.03;;
29730;SDS011;16639;51.488;0.152;2023-04-25T12:44:40;7.13;;;2.83;;
29730;SDS011;16639;51.488;0.152;2023-04-25T12:47:08;3.95;;;2.28;;
29730;SDS011;16639;51.488;0.152;2023-04-25T12:49:36;5.80;;;2.85;;
29730;SDS011;16639;51.488;0.152;2023-04-25T12:52:03;7.82;;;2.90;;
29730;SDS011;16639;51.488;0.152;2023-04-25T12:54:31;6.03;;;2.28;;
29730;SDS011;16639;51.488;0.152;2023-04-25T12:56:59;6.15;;;2.75;;
29730;SDS011;16639;51.488;0.152;2023-04-25T12:59:28;4.40;;;2.95;;
29730;SDS011;16639;51.488;0.152;2023-04-25T13:01:55;7.88;;;2.80;;
29730;SDS011;16639;51.488;0.152;2023-04-25T13:04:22;3.95;;;2.22;;
29730;SDS011;16639;51.488;0.152;2023-04-25T13:06:50;6.25;;;3.35;;
29730;SDS011;16639;51.488;0.152;2023-04-25T13:09:18;10.45;;;3.08;;
29730;SDS011;16639;51.488;0.152;2023-04-25T13:11:45;9.30;;;3.00;;
29730;SDS011;16639;51.488;0.152;2023-04-25T13:14:16;6.65;;;2.70;;
29730;SDS011;16639;51.488;0.152;2023-04-25T13:16:49;7.30;;;3.08;;
29730;SDS011;16639;51.488;0.152;2023-04-25T13:19:27;11.52;;;2.72;;
29730;SDS011;16639;51.488;0.152;2023-04-25T13:21:55;7.95;;;2.72;;
29730;SDS011;16639;51.488;0.152;2023-04-25T13:24:22;9.38;;;3.28;;
29730;SDS011;16639;51.488;0.152;2023-04-25T13:26:50;7.10;;;2.38;;
29730;SDS011;16639;51.488;0.152;2023-04-25T13:29:17;8.18;;;5.15;;
29730;SDS011;16639;51.488;0.152;2023-04-25T13:31:45;15.73;;;3.65;;
29730;SDS011;16639;51.488;0.152;2023-04-25T13:34:13;16.30;;;4.45;;
29730;SDS011;16639;51.488;0.152;2023-04-25T13:36:40;12.75;;;3.35;;
29730;SDS011;16639;51.488;0.152;2023-04-25T13:39:08;9.63;;;3.17;;
29730;SDS011;16639;51.488;0.152;2023-04-25T13:41:35;7.70;;;3.13;;
29730;SDS011;16639;51.488;0.152;2023-04-25T13:44:03;8.13;;;3.25;;
29730;SDS011;16639;51.488;0.152;2023-04-25T13:46:30;6.85;;;2.60;;
29730;SDS011;16639;51.488;0.152;2023-04-25T13:49:12;4.57;;;2.58;;
29730;SDS011;16639;51.488;0.152;2023-04-25T13:51:40;8.55;;;3.00;;
29730;SDS011;16639;51.488;0.152;2023-04-25T13:54:09;9.95;;;2.35;;
29730;SDS011;16639;51.488;0.152;2023-04-25T13:56:36;10.32;;;3.05;;
29730;SDS011;16639;51.488;0.152;2023-04-25T13:59:04;7.65;;;2.70;;
29730;SDS011;16639;51.488;0.152;2023-04-25T14:01:31;7.13;;;3.03;;
29730;SDS011;16639;51.488;0.152;2023-04-25T14:04:01;6.97;;;3.67;;
29730;SDS011;16639;51.488;0.152;2023-04-25T14:06:31;10.07;;;3.30;;
29730;SDS011;16639;51.488;0.152;2023-04-25T14:08:59;9.05;;;3.25;;
29730;SDS011;16639;51.488;0.152;2023-04-25T14:11:31;9.88;;;3.10;;
29730;SDS011;16639;51.488;0.152;2023-04-25T14:13:58;17.17;;;3.38;;
29730;SDS011;16639;51.488;0.152;2023-04-25T14:16:26;12.02;;;3.10;;
29730;SDS011;16639;51.488;0.152;2023-04-25T14:18:54;4.70;;;2.80;;
29730;SDS011;16639;51.488;0.152;2023-04-25T14:21:22;9.35;;;2.60;;
29730;SDS011;16639;51.488;0.152;2023-04-25T14:23:49;5.22;;;2.35;;
29730;SDS011;16639;51.488;0.152;2023-04-25T14:26:17;5.28;;;2.30;;
29730;SDS011;16639;51.488;0.152;2023-04-25T14:28:44;9.02;;;3.17;;
29730;SDS011;16639;51.488;0.152;2023-04-25T14:31:12;8.30;;;3.17;;
29730;SDS011;16639;51.488;0.152;2023-04-25T14:33:40;9.85;;;2.88;;
29730;SDS011;16639;51.488;0.152;2023-04-25T14:36:09;7.13;;;2.97;;
29730;SDS011;16639;51.488;0.152;2023-04-25T14:38:37;8.65;;;3.08;;
29730;SDS011;16639;51.488;0.152;2023-04-25T14:41:04;8.70;;;3.53;;
29730;SDS011;16639;51.488;0.152;2023-04-25T14:43:32;3.08;;;2.10;;
29730;SDS011;16639;51.488;0.152;2023-04-25T14:46:01;12.30;;;4.18;;
29730;SDS011;16639;51.488;0.152;2023-04-25T14:48:45;6.55;;;3.30;;
29730;SDS011;16639;51.488;0.152;2023-04-25T14:51:12;7.10;;;2.30;;
29730;SDS011;16639;51.488;0.152;2023-04-25T14:53:40;5.03;;;3.05;;